Time;durP1;ratioP1;P1;durP2;ratioP2;P2;SDS_P1;SDS_P2;PMS_P1;PMS_P2;Temp;Humidity;BMP_temperature;BMP_pressure;BME280_temperature;BME280_humidity;BME280_pressure;Samples;Min_cycle;Max_cycle;Signal;HPM_P1;HPM_P2
2023/05/28 00:01:56;;;;;;;7.67;4.63;;;;;;;14.31;60.09;98255.06;5071715;28;20302;-82
2023/05/28 00:04:24;;;;;;;5.73;3.73;;;;;;;14.19;60.46;98248.09;5071717;28;20673;-81
2023/05/28 00:06:52;;;;;;;6.33;4.10;;;;;;;14.09;60.97;98257.72;5071811;28;20302;-81
2023/05/28 00:09:20;;;;;;;7.83;3.67;;;;;;;14.05;60.98;98251.00;5070813;28;20207;-82
2023/05/28 00:11:47;;;;;;;7.80;3.93;;;;;;;14.09;60.59;98245.31;5071440;28;20217;-83
2023/05/28 00:14:14;;;;;;;7.93;4.40;;;;;;;14.14;60.05;98243.13;5071687;28;20247;-82
2023/05/28 00:16:43;;;;;;;6.60;4.30;;;;;;;14.06;60.25;98244.72;5071713;28;20251;-83
2023/05/28 00:19:09;;;;;;;7.17;3.97;;;;;;;13.95;60.87;98242.06;5070955;28;20256;-81
2023/05/28 00:21:36;;;;;;;5.97;4.00;;;;;;;13.87;61.50;98248.00;5071537;28;20231;-81
2023/05/28 00:24:03;;;;;;;7.37;4.10;;;;;;;13.80;61.85;98251.25;5071460;28;20248;-81
2023/05/28 00:26:31;;;;;;;5.73;3.70;;;;;;;13.68;62.20;98246.97;5071471;28;20668;-81
2023/05/28 00:28:57;;;;;;;5.70;3.47;;;;;;;13.60;62.61;98252.88;5071297;28;20720;-80
2023/05/28 00:31:24;;;;;;;6.90;3.40;;;;;;;13.50;63.20;98253.72;5070487;28;20235;-82
2023/05/28 00:33:50;;;;;;;6.23;4.03;;;;;;;13.43;63.80;98260.47;5071395;28;20231;-82
2023/05/28 00:36:17;;;;;;;4.93;3.50;;;;;;;13.35;64.43;98252.25;5071350;28;20269;-82
2023/05/28 00:38:43;;;;;;;5.97;3.23;;;;;;;13.32;65.01;98257.81;5071324;28;20207;-82
2023/05/28 00:41:10;;;;;;;8.43;4.10;;;;;;;13.31;64.79;98258.75;5070345;28;20235;-82
2023/05/28 00:43:38;;;;;;;6.70;3.83;;;;;;;13.23;65.71;98255.88;5071554;28;20207;-82
2023/05/28 00:46:07;;;;;;;6.37;3.70;;;;;;;13.19;65.99;98263.22;5071108;28;20203;-82
2023/05/28 00:48:33;;;;;;;6.60;3.63;;;;;;;13.13;66.80;98268.16;5071174;28;20211;-81
2023/05/28 00:51:00;;;;;;;8.93;4.10;;;;;;;13.09;67.96;98277.34;5070284;28;20228;-81
2023/05/28 00:53:26;;;;;;;7.50;3.60;;;;;;;13.05;69.15;98275.88;5071042;28;20246;-80
2023/05/28 00:55:54;;;;;;;5.73;3.43;;;;;;;12.98;69.82;98274.66;5071070;28;20211;-82
2023/05/28 00:58:21;;;;;;;6.03;3.60;;;;;;;12.90;70.07;98283.16;5071246;28;20575;-81
2023/05/28 01:00:49;;;;;;;6.50;3.50;;;;;;;12.85;69.72;98268.56;5067689;28;20351;-79
2023/05/28 01:03:16;;;;;;;5.63;3.70;;;;;;;12.75;70.86;98273.72;5071509;28;20203;-80
2023/05/28 01:05:42;;;;;;;4.90;3.43;;;;;;;12.68;71.46;98276.94;5070895;28;20257;-80
2023/05/28 01:08:10;;;;;;;5.47;3.47;;;;;;;12.62;71.64;98272.09;5070914;28;20211;-81
2023/05/28 01:10:37;;;;;;;6.97;3.60;;;;;;;12.56;71.95;98272.56;5070488;28;20600;-81
2023/05/28 01:13:08;;;;;;;6.00;3.47;;;;;;;12.51;72.97;98280.88;5071015;28;20234;-81
2023/05/28 01:15:37;;;;;;;7.20;3.20;;;;;;;12.44;73.25;98278.78;5071132;28;20589;-81
2023/05/28 01:18:06;;;;;;;6.07;3.20;;;;;;;12.40;74.10;98277.34;5070921;28;20302;-81
2023/05/28 01:20:32;;;;;;;6.53;4.13;;;;;;;12.38;73.99;98273.94;5069957;28;20250;-81
2023/05/28 01:23:03;;;;;;;7.50;3.77;;;;;;;12.32;73.81;98269.06;5070932;28;20564;-81
2023/05/28 01:25:31;;;;;;;5.43;3.53;;;;;;;12.26;74.83;98278.34;5070914;28;20215;-82
2023/05/28 01:28:01;;;;;;;7.57;3.63;;;;;;;12.23;74.61;98272.41;5070942;28;20211;-81
2023/05/28 01:30:28;;;;;;;4.77;3.43;;;;;;;12.19;75.14;98270.94;5069885;28;20333;-80
2023/05/28 01:32:54;;;;;;;7.77;4.20;;;;;;;12.17;75.22;98275.53;5071004;28;20310;-81
2023/05/28 01:35:21;;;;;;;8.53;4.90;;;;;;;12.23;76.27;98277.72;5081590;28;20242;-81
2023/05/28 01:37:52;;;;;;;7.10;4.73;;;;;;;12.27;77.32;98279.16;5092163;28;20268;-80
2023/05/28 01:40:19;;;;;;;8.63;4.63;;;;;;;12.20;77.63;98275.28;5094236;28;20250;-80
2023/05/28 01:42:47;;;;;;;7.60;4.23;;;;;;;12.16;77.74;98269.38;5079122;28;20581;-82
2023/05/28 01:45:15;;;;;;;6.97;4.43;;;;;;;12.10;78.56;98269.81;5074209;28;20210;-82
2023/05/28 01:47:42;;;;;;;8.77;4.90;;;;;;;12.11;79.48;98275.97;5074109;28;20225;-81
2023/05/28 01:50:10;;;;;;;8.47;5.33;;;;;;;12.12;80.13;98275.00;5073631;28;20226;-81
2023/05/28 01:52:36;;;;;;;6.37;4.83;;;;;;;12.07;80.37;98274.50;5074307;28;20242;-82
2023/05/28 01:55:04;;;;;;;7.43;4.70;;;;;;;11.99;81.07;98279.50;5074011;28;20210;-81
2023/05/28 01:57:31;;;;;;;7.60;4.40;;;;;;;11.95;81.75;98275.38;5074194;28;20211;-80
2023/05/28 01:59:59;;;;;;;8.00;4.73;;;;;;;11.91;81.06;98274.75;5073181;28;20245;-81
2023/05/28 02:02:26;;;;;;;5.97;3.97;;;;;;;11.86;81.15;98276.06;5073893;28;20211;-81
2023/05/28 02:04:53;;;;;;;6.00;3.90;;;;;;;11.79;80.13;98259.75;5074014;28;20304;-81
2023/05/28 02:07:19;;;;;;;6.13;3.83;;;;;;;11.78;79.25;98257.19;5074136;28;20230;-81
2023/05/28 02:09:46;;;;;;;8.93;4.60;;;;;;;11.74;79.09;98263.69;5072926;28;20709;-80
2023/05/28 02:12:12;;;;;;;4.77;3.60;;;;;;;11.69;79.36;98260.53;5073827;28;20214;-80
2023/05/28 02:14:39;;;;;;;5.20;3.83;;;;;;;11.70;78.52;98254.28;5073519;28;20238;-80
2023/05/28 02:17:07;;;;;;;5.90;3.70;;;;;;;11.67;78.57;98249.22;5074163;28;20240;-81
2023/05/28 02:19:34;;;;;;;6.57;4.10;;;;;;;11.68;78.09;98246.44;5072974;28;20302;-82
2023/05/28 02:22:00;;;;;;;6.30;3.90;;;;;;;11.64;77.97;98249.41;5073669;28;20215;-81
2023/05/28 02:24:27;;;;;;;7.27;3.63;;;;;;;11.58;78.68;98249.81;5073690;28;20665;-81
2023/05/28 02:26:54;;;;;;;8.80;4.13;;;;;;;11.49;79.50;98251.31;5073642;28;20215;-80
2023/05/28 02:29:21;;;;;;;7.37;4.60;;;;;;;11.42;80.43;98254.50;5072554;28;20218;-81
2023/05/28 02:31:47;;;;;;;6.23;3.67;;;;;;;11.36;81.64;98257.56;5073266;28;20222;-81
2023/05/28 02:34:16;;;;;;;6.30;4.00;;;;;;;11.27;81.66;98260.88;5073535;28;20227;-80
2023/05/28 02:36:43;;;;;;;5.77;4.17;;;;;;;11.18;82.25;98251.78;5073569;28;20216;-81
2023/05/28 02:39:10;;;;;;;7.73;4.50;;;;;;;11.08;83.48;98255.19;5072566;28;20211;-80
2023/05/28 02:41:37;;;;;;;8.07;4.70;;;;;;;11.03;84.26;98257.28;5073172;28;20214;-81
2023/05/28 02:44:03;;;;;;;8.17;4.20;;;;;;;10.98;84.46;98254.09;5072967;28;20206;-81
2023/05/28 02:46:30;;;;;;;6.53;4.23;;;;;;;10.93;84.88;98254.44;5073272;28;20206;-82
2023/05/28 02:48:56;;;;;;;5.63;4.07;;;;;;;10.90;85.69;98261.72;5073207;28;20210;-82
2023/05/28 02:51:24;;;;;;;10.10;5.47;;;;;;;10.93;85.92;98267.66;5071244;28;20742;-81
2023/05/28 02:53:50;;;;;;;8.20;4.50;;;;;;;10.88;86.09;98261.00;5072945;28;20227;-80
2023/05/28 02:56:17;;;;;;;6.23;4.37;;;;;;;10.88;85.93;98256.53;5072943;28;20219;-80
2023/05/28 02:58:43;;;;;;;7.33;4.27;;;;;;;10.88;85.37;98253.91;5072866;28;20218;-80
2023/05/28 03:01:10;;;;;;;8.17;4.77;;;;;;;10.86;85.22;98250.53;5072201;28;20256;-80
2023/05/28 03:03:36;;;;;;;7.13;4.73;;;;;;;10.81;85.18;98251.75;5072954;28;20206;-80
2023/05/28 03:06:03;;;;;;;7.50;4.50;;;;;;;10.75;85.47;98257.47;5072975;28;20603;-80
2023/05/28 03:08:31;;;;;;;6.67;4.30;;;;;;;10.69;86.03;98253.47;5072789;28;20208;-80
2023/05/28 03:10:57;;;;;;;7.27;4.70;;;;;;;10.62;86.40;98264.53;5071810;28;20228;-82
2023/05/28 03:13:24;;;;;;;7.67;4.53;;;;;;;10.61;86.93;98266.34;5072502;28;20242;-82
2023/05/28 03:15:50;;;;;;;7.73;5.33;;;;;;;10.55;87.56;98276.47;5072739;28;20203;-81
2023/05/28 03:18:17;;;;;;;9.07;5.23;;;;;;;10.48;87.40;98275.19;5072653;28;20222;-82
2023/05/28 03:20:44;;;;;;;10.83;5.43;;;;;;;10.38;88.20;98274.09;5071714;28;20233;-81
2023/05/28 03:23:10;;;;;;;9.00;4.57;;;;;;;10.34;89.03;98272.63;5072433;28;20209;-81
2023/05/28 03:25:38;;;;;;;8.10;5.17;;;;;;;10.35;89.56;98269.03;5072328;28;20208;-82
2023/05/28 03:28:05;;;;;;;6.27;4.33;;;;;;;10.33;89.91;98276.22;5072525;28;20211;-81
2023/05/28 03:30:31;;;;;;;9.57;5.60;;;;;;;10.39;90.61;98270.53;5086630;22;20237;-80
2023/05/28 03:32:58;;;;;;;10.87;5.60;;;;;;;10.48;91.43;98272.56;5071724;28;20674;-80
2023/05/28 03:35:24;;;;;;;7.50;5.33;;;;;;;10.49;92.04;98271.59;5072030;28;20657;-79
2023/05/28 03:37:51;;;;;;;7.80;5.20;;;;;;;10.49;92.15;98272.47;5071850;28;20207;-79
2023/05/28 03:40:17;;;;;;;8.00;4.93;;;;;;;10.43;92.82;98272.00;5071088;28;20253;-80
2023/05/28 03:42:45;;;;;;;8.47;5.20;;;;;;;10.42;93.36;98276.47;5071787;28;20205;-80
2023/05/28 03:45:11;;;;;;;10.50;5.27;;;;;;;10.47;93.33;98269.03;5072014;28;20228;-80
2023/05/28 03:47:38;;;;;;;11.40;5.47;;;;;;;10.58;93.74;98274.47;5072109;28;20208;-80
2023/05/28 03:50:05;;;;;;;8.03;5.40;;;;;;;10.64;93.69;98276.69;5071049;28;20260;-80
2023/05/28 03:52:32;;;;;;;8.80;5.53;;;;;;;10.70;93.74;98270.19;5071709;28;20297;-80
2023/05/28 03:54:59;;;;;;;10.17;5.17;;;;;;;10.71;93.44;98271.88;5071437;28;20238;-80
2023/05/28 03:57:25;;;;;;;8.63;5.30;;;;;;;10.71;93.44;98272.69;5071486;28;20211;-80
2023/05/28 03:59:55;;;;;;;9.20;5.30;;;;;;;10.74;93.12;98277.78;5070840;28;20445;-80
2023/05/28 04:02:22;;;;;;;8.57;4.93;;;;;;;10.74;93.23;98269.84;5071266;28;20217;-80
2023/05/28 04:04:48;;;;;;;8.37;5.20;;;;;;;10.76;93.83;98275.88;5071573;28;20212;-80
2023/05/28 04:07:15;;;;;;;10.03;5.67;;;;;;;10.77;94.30;98271.44;5071346;28;20214;-80
2023/05/28 04:09:41;;;;;;;11.33;6.37;;;;;;;10.79;94.04;98274.81;5071015;28;20216;-80
2023/05/28 04:12:08;;;;;;;8.47;5.17;;;;;;;10.81;93.69;98268.50;5071394;28;20220;-80
2023/05/28 04:14:35;;;;;;;9.63;5.40;;;;;;;10.83;93.66;98271.03;5071308;28;20238;-80
2023/05/28 04:17:03;;;;;;;9.10;5.67;;;;;;;10.88;94.32;98268.94;5071466;28;20214;-80
2023/05/28 04:19:29;;;;;;;6.97;5.43;;;;;;;10.91;94.83;98263.41;5070526;28;20297;-80
2023/05/28 04:21:55;;;;;;;8.00;5.10;;;;;;;10.98;94.26;98262.03;5071049;28;20231;-80
2023/05/28 04:24:22;;;;;;;7.47;4.73;;;;;;;10.99;92.91;98261.09;5071395;28;20206;-79
2023/05/28 04:26:48;;;;;;;8.93;4.90;;;;;;;11.02;92.55;98260.88;5070991;28;20214;-80
2023/05/28 04:29:15;;;;;;;7.20;5.03;;;;;;;11.06;93.75;98259.75;5070407;28;20207;-80
2023/05/28 04:31:43;;;;;;;11.00;5.47;;;;;;;11.16;93.30;98276.66;5071071;28;20239;-79
2023/05/28 04:34:11;;;;;;;8.03;4.87;;;;;;;11.19;92.26;98266.69;5071086;28;20241;-80
2023/05/28 04:36:38;;;;;;;10.37;4.83;;;;;;;11.18;92.96;98274.75;5070770;28;20218;-80
2023/05/28 04:39:04;;;;;;;10.53;5.20;;;;;;;11.20;93.92;98276.31;5071109;28;20217;-80
2023/05/28 04:41:31;;;;;;;7.87;5.30;;;;;;;11.24;94.02;98276.94;5070386;28;20230;-80
2023/05/28 04:43:57;;;;;;;9.13;5.30;;;;;;;11.30;93.23;98273.88;5070996;28;20271;-80
2023/05/28 04:46:29;;;;;;;9.50;5.40;;;;;;;11.29;94.43;98274.84;5070943;28;20520;-80
2023/05/28 04:48:56;;;;;;;8.27;5.30;;;;;;;11.37;94.53;98288.41;5070830;28;20620;-80
2023/05/28 04:51:23;;;;;;;7.77;5.20;;;;;;;11.40;94.30;98277.59;5070251;28;20254;-79
2023/05/28 04:53:50;;;;;;;8.37;5.70;;;;;;;11.46;94.12;98283.31;5071033;28;20258;-80
2023/05/28 04:56:17;;;;;;;8.23;5.40;;;;;;;11.52;94.06;98276.72;5070897;28;20211;-80
2023/05/28 04:58:43;;;;;;;10.97;6.53;;;;;;;11.58;93.92;98282.47;5070799;28;20210;-80
2023/05/28 05:01:10;;;;;;;9.70;5.53;;;;;;;11.68;94.19;98278.19;5070106;28;20230;-80
2023/05/28 05:03:36;;;;;;;8.43;5.30;;;;;;;11.82;93.38;98279.88;5070727;28;20213;-80
2023/05/28 05:06:03;;;;;;;7.93;5.27;;;;;;;11.94;92.64;98289.59;5070641;28;20238;-80
2023/05/28 05:08:31;;;;;;;7.20;5.53;;;;;;;12.18;91.15;98282.50;5070713;28;20221;-80
2023/05/28 05:10:57;;;;;;;9.17;5.60;;;;;;;12.58;89.35;98283.88;5070013;28;20234;-80
2023/05/28 05:13:24;;;;;;;7.83;5.70;;;;;;;13.20;86.89;98272.88;5070552;28;20211;-80
2023/05/28 05:15:51;;;;;;;8.90;5.33;;;;;;;13.81;83.18;98267.09;5073753;28;20654;-80
2023/05/28 05:18:17;;;;;;;9.00;5.90;;;;;;;14.43;80.08;98259.38;5074491;28;20211;-80
2023/05/28 05:20:44;;;;;;;8.17;5.63;;;;;;;14.82;77.39;98243.59;5073854;28;20680;-80
2023/05/28 05:23:10;;;;;;;8.33;5.40;;;;;;;15.10;75.26;98239.41;5074548;28;20238;-80
2023/05/28 05:25:38;;;;;;;8.50;5.73;;;;;;;15.42;72.44;98226.84;5074475;28;20208;-80
2023/05/28 05:28:05;;;;;;;7.83;5.13;;;;;;;15.75;71.10;98226.56;5074352;28;20210;-80
2023/05/28 05:30:31;;;;;;;8.17;5.33;;;;;;;16.09;69.58;98218.09;5073371;28;20269;-80
2023/05/28 05:32:58;;;;;;;8.13;5.43;;;;;;;16.42;67.78;98215.91;5074212;28;20234;-80
2023/05/28 05:35:24;;;;;;;9.87;5.73;;;;;;;16.70;66.16;98207.03;5073960;28;20227;-80
2023/05/28 05:37:50;;;;;;;7.87;5.60;;;;;;;17.06;64.34;98208.94;5074447;28;20230;-80
2023/05/28 05:40:17;;;;;;;7.70;5.27;;;;;;;17.34;62.07;98202.69;5073243;28;20223;-80
2023/05/28 05:42:45;;;;;;;7.67;4.90;;;;;;;17.57;60.45;98192.50;5074038;28;20223;-80
2023/05/28 05:45:11;;;;;;;8.13;5.23;;;;;;;17.74;59.19;98187.19;5074023;28;20231;-80
2023/05/28 05:47:38;;;;;;;8.07;5.00;;;;;;;17.95;58.76;98178.91;5074235;28;20219;-81
2023/05/28 05:50:06;;;;;;;6.80;5.33;;;;;;;18.24;58.59;98187.59;5073762;28;20227;-79
2023/05/28 05:52:32;;;;;;;7.67;4.90;;;;;;;18.35;57.97;98176.69;5074681;28;20203;-79
2023/05/28 05:54:59;;;;;;;6.30;5.13;;;;;;;18.39;58.60;98192.28;5074564;28;20288;-80
2023/05/28 05:57:26;;;;;;;7.70;5.60;;;;;;;18.52;58.55;98198.09;5074505;28;20215;-79
2023/05/28 05:59:54;;;;;;;9.03;5.33;;;;;;;18.72;58.53;98194.25;5073481;28;20211;-79
2023/05/28 06:02:20;;;;;;;7.93;5.10;;;;;;;18.98;56.74;98184.44;5074624;28;20210;-80
2023/05/28 06:04:47;;;;;;;8.23;4.97;;;;;;;19.23;55.48;98166.69;5074357;28;20203;-80
2023/05/28 06:07:13;;;;;;;6.27;4.77;;;;;;;19.40;54.25;98174.66;5074525;28;20211;-80
2023/05/28 06:09:40;;;;;;;7.87;4.77;;;;;;;19.62;54.08;98167.91;5073167;28;20242;-80
2023/05/28 06:12:07;;;;;;;8.07;5.20;;;;;;;19.71;53.21;98167.78;5073549;28;20209;-80
2023/05/28 06:14:33;;;;;;;8.87;5.10;;;;;;;19.92;53.45;98170.00;5073543;28;20235;-80
2023/05/28 06:17:01;;;;;;;8.63;5.43;;;;;;;19.83;53.28;98166.47;5073785;28;20227;-80
2023/05/28 06:19:29;;;;;;;7.40;5.07;;;;;;;20.07;52.92;98171.09;5073000;28;20211;-80
2023/05/28 06:21:55;;;;;;;8.67;5.13;;;;;;;20.23;53.42;98177.34;5073376;28;20238;-81
2023/05/28 06:24:22;;;;;;;7.27;4.80;;;;;;;20.36;52.40;98172.31;5073232;28;20200;-79
2023/05/28 06:26:48;;;;;;;8.27;4.70;;;;;;;20.55;51.80;98165.81;5073047;28;20220;-77
2023/05/28 06:29:14;;;;;;;6.47;4.27;;;;;;;20.65;50.75;98153.88;5072608;28;20594;-78
2023/05/28 06:31:41;;;;;;;8.27;5.00;;;;;;;20.70;50.45;98153.38;5072952;28;20246;-79
2023/05/28 06:34:09;;;;;;;6.83;4.37;;;;;;;20.84;50.78;98161.59;5072627;28;20322;-80
2023/05/28 06:36:36;;;;;;;8.00;4.60;;;;;;;20.89;49.40;98153.91;5072943;28;20238;-80
2023/05/28 06:39:04;;;;;;;6.47;4.17;;;;;;;21.00;48.98;98145.50;5072944;28;20354;-80
2023/05/28 06:41:30;;;;;;;6.67;3.60;;;;;;;21.16;48.57;98140.06;5072882;28;20645;-80
2023/05/28 06:43:57;;;;;;;5.63;3.97;;;;;;;21.19;48.58;98141.56;5073504;28;20207;-80
2023/05/28 06:46:23;;;;;;;8.90;4.47;;;;;;;21.18;48.10;98142.59;5073433;28;20674;-79
2023/05/28 06:48:50;;;;;;;7.00;4.37;;;;;;;21.18;47.91;98140.75;5073430;28;20218;-78
2023/05/28 06:51:18;;;;;;;7.20;4.07;;;;;;;21.05;47.25;98137.78;5072415;28;20710;-78
2023/05/28 06:53:44;;;;;;;4.47;3.70;;;;;;;21.02;46.26;98129.22;5073328;28;20215;-77
2023/05/28 06:56:11;;;;;;;6.30;4.37;;;;;;;20.76;45.63;98118.63;5073445;28;20597;-81
2023/05/28 06:58:37;;;;;;;7.07;4.33;;;;;;;20.42;47.05;98126.00;5073108;28;20214;-79
2023/05/28 07:01:04;;;;;;;9.13;4.30;;;;;;;20.05;48.65;98143.56;5071962;28;20326;-79
2023/05/28 07:03:31;;;;;;;6.77;4.10;;;;;;;19.66;49.52;98147.78;5072887;28;20212;-79
2023/05/28 07:05:57;;;;;;;6.20;4.13;;;;;;;19.25;49.99;98148.59;5072909;28;20630;-79
2023/05/28 07:08:26;;;;;;;6.87;4.13;;;;;;;18.82;50.93;98165.56;5075882;28;20219;-79
2023/05/28 07:10:52;;;;;;;8.37;4.03;;;;;;;18.57;50.93;98162.81;5074739;28;20638;-79
2023/05/28 07:13:19;;;;;;;6.70;3.67;;;;;;;18.49;50.96;98158.28;5075256;28;20211;-78
2023/05/28 07:15:46;;;;;;;10.07;4.40;;;;;;;18.46;50.32;98155.88;5076744;28;20241;-77
2023/05/28 07:18:13;;;;;;;7.73;4.20;;;;;;;18.34;51.10;98159.78;5080629;28;20219;-77
2023/05/28 07:20:39;;;;;;;6.40;4.03;;;;;;;18.37;51.82;98177.38;5078873;28;20290;-77
2023/05/28 07:23:06;;;;;;;7.80;4.13;;;;;;;18.31;52.33;98178.84;5073006;28;20214;-77
2023/05/28 07:25:34;;;;;;;8.40;4.47;;;;;;;18.41;52.73;98181.44;5074256;28;20571;-78
2023/05/28 07:28:00;;;;;;;6.10;4.10;;;;;;;18.60;52.45;98186.63;5074918;28;20207;-77
2023/05/28 07:30:27;;;;;;;8.93;4.90;;;;;;;18.57;53.37;98193.13;5073848;28;20235;-78
2023/05/28 07:32:53;;;;;;;8.27;4.03;;;;;;;18.70;51.28;98173.97;5075199;28;20187;-78
2023/05/28 07:35:20;;;;;;;6.80;4.10;;;;;;;18.71;52.55;98195.25;5074366;28;20227;-80
2023/05/28 07:37:46;;;;;;;7.43;4.27;;;;;;;18.69;53.24;98205.28;5074659;28;20211;-77
2023/05/28 07:40:14;;;;;;;6.73;4.23;;;;;;;18.78;52.36;98188.28;5080213;28;20230;-78
2023/05/28 07:42:42;;;;;;;6.77;4.20;;;;;;;18.81;51.72;98190.66;5091766;28;20219;-79
2023/05/28 07:45:09;;;;;;;7.77;4.00;;;;;;;18.84;51.23;98176.94;5092128;28;20294;-79
2023/05/28 07:47:38;;;;;;;5.97;4.63;;;;;;;18.82;51.33;98186.13;5091339;28;20268;-79
2023/05/28 07:50:05;;;;;;;7.70;4.17;;;;;;;18.85;51.88;98193.84;5088451;28;20227;-79
2023/05/28 07:52:31;;;;;;;8.47;4.70;;;;;;;18.85;51.22;98177.78;5077726;28;20207;-78
2023/05/28 07:54:58;;;;;;;7.20;4.40;;;;;;;19.00;51.31;98182.41;5090381;28;20227;-79
2023/05/28 07:57:25;;;;;;;7.93;3.90;;;;;;;18.94;53.66;98209.84;5088020;28;20204;-79
2023/05/28 07:59:53;;;;;;;5.47;4.07;;;;;;;19.06;53.96;98219.28;5074876;28;20214;-79
2023/05/28 08:02:19;;;;;;;10.17;4.30;;;;;;;19.21;54.23;98223.09;5080375;28;20219;-79
2023/05/28 08:04:46;;;;;;;6.70;4.00;;;;;;;19.37;53.16;98207.13;5081841;28;20207;-79
2023/05/28 08:07:13;;;;;;;6.30;3.70;;;;;;;19.44;51.62;98192.09;5084175;28;20221;-78
2023/05/28 08:09:41;;;;;;;6.80;4.40;;;;;;;19.57;53.19;98207.75;5073313;28;20207;-79
2023/05/28 08:12:08;;;;;;;7.00;4.03;;;;;;;19.71;53.25;98210.69;5071229;28;20302;-79
2023/05/28 08:14:34;;;;;;;6.43;3.77;;;;;;;19.83;53.37;98209.41;5069459;28;20212;-79
2023/05/28 08:17:02;;;;;;;6.27;4.00;;;;;;;19.91;50.86;98182.59;5068142;28;20673;-78
2023/05/28 08:19:29;;;;;;;8.10;4.40;;;;;;;19.80;50.22;98158.75;5067221;28;20215;-79
2023/05/28 08:21:56;;;;;;;4.80;3.73;;;;;;;19.74;49.50;98156.72;5068528;28;20223;-79
2023/05/28 08:24:22;;;;;;;8.73;4.00;;;;;;;19.96;51.80;98185.63;5071088;28;20575;-75
2023/05/28 08:26:49;;;;;;;8.73;4.10;;;;;;;20.02;50.81;98168.88;5071019;28;20215;-79
2023/05/28 08:29:15;;;;;;;5.90;4.07;;;;;;;20.11;50.11;98162.53;5067546;28;20207;-79
2023/05/28 08:31:42;;;;;;;6.87;4.33;;;;;;;20.29;49.66;98157.88;5067328;28;20235;-79
2023/05/28 08:34:10;;;;;;;5.90;4.13;;;;;;;20.31;48.22;98139.75;5067999;28;20219;-79
2023/05/28 08:36:37;;;;;;;8.20;4.27;;;;;;;20.20;48.29;98137.41;5069775;28;20219;-80
2023/05/28 08:39:04;;;;;;;7.27;4.17;;;;;;;20.31;49.25;98150.50;5070751;28;20643;-79
2023/05/28 08:41:31;;;;;;;6.10;3.97;;;;;;;20.39;50.86;98180.06;5068798;28;20227;-80
2023/05/28 08:43:57;;;;;;;6.90;3.83;;;;;;;20.56;51.68;98181.75;5068284;28;20227;-79
2023/05/28 08:46:24;;;;;;;9.30;4.40;;;;;;;20.72;52.83;98197.84;5067813;28;20214;-80
2023/05/28 08:48:52;;;;;;;7.17;3.87;;;;;;;20.95;51.92;98188.16;5068525;28;20309;-80
2023/05/28 08:51:24;;;;;;;6.50;4.00;;;;;;;21.04;51.64;98176.38;5073966;28;20234;-80
2023/05/28 08:53:52;;;;;;;8.67;4.10;;;;;;;21.09;51.83;98176.72;5075067;28;20802;-80
2023/05/28 08:56:20;;;;;;;7.03;3.97;;;;;;;21.12;49.29;98146.81;5081802;28;20277;-79
2023/05/28 08:58:48;;;;;;;6.87;4.27;;;;;;;21.17;50.82;98155.22;5086960;28;20231;-79
2023/05/28 09:01:15;;;;;;;5.57;3.77;;;;;;;21.32;53.04;98188.44;5083948;28;20351;-79
2023/05/28 09:03:41;;;;;;;9.17;4.50;;;;;;;21.42;52.52;98174.78;5085766;28;20192;-79
2023/05/28 09:06:08;;;;;;;5.47;3.77;;;;;;;21.45;49.14;98136.81;5086327;28;20211;-79
2023/05/28 09:08:37;;;;;;;8.83;4.33;;;;;;;21.41;50.46;98140.84;5086213;28;20284;-80
2023/05/28 09:11:10;;;;;;;6.33;4.17;;;;;;;21.57;49.20;98121.97;5083287;28;20238;-79
2023/05/28 09:13:41;;;;;;;5.27;3.83;;;;;;;21.55;46.85;98094.41;5081144;28;20203;-80
2023/05/28 09:16:07;;;;;;;11.10;4.30;;;;;;;21.62;49.29;98128.50;5081617;28;20299;-80
2023/05/28 09:18:34;;;;;;;5.10;3.67;;;;;;;21.63;49.07;98122.09;5080923;28;20226;-80
2023/05/28 09:21:01;;;;;;;6.50;4.10;;;;;;;21.76;47.64;98106.25;5081844;28;20273;-79
2023/05/28 09:23:29;;;;;;;6.30;4.30;;;;;;;21.72;52.27;98171.38;5091095;28;20215;-78
2023/05/28 09:26:00;;;;;;;7.80;4.33;;;;;;;21.83;47.52;98107.22;5097258;28;20249;-80
2023/05/28 09:28:27;;;;;;;7.87;4.50;;;;;;;21.94;46.92;98096.06;5096909;28;20225;-80
2023/05/28 09:30:55;;;;;;;6.20;4.00;;;;;;;21.99;46.72;98096.38;5098345;22;20223;-78
2023/05/28 09:33:21;;;;;;;6.57;4.10;;;;;;;21.84;46.12;98090.09;5074730;28;20207;-78
2023/05/28 09:35:58;;;;;;;7.17;4.43;;;;;;;21.89;47.64;98098.44;5074810;28;20367;-78
2023/05/28 09:38:26;;;;;;;9.60;4.40;;;;;;;22.01;48.95;98117.75;5074447;28;20645;-79
2023/05/28 09:40:55;;;;;;;9.77;4.80;;;;;;;22.03;50.62;98148.00;5074081;28;20251;-79
2023/05/28 09:43:28;;;;;;;6.77;3.70;;;;;;;22.13;46.32;98084.84;5074443;28;20835;-79
2023/05/28 09:46:07;;;;;;;5.90;4.03;;;;;;;22.18;47.45;98098.59;5074527;28;20199;-79
2023/05/28 09:48:33;;;;;;;6.13;3.87;;;;;;;22.27;49.65;98119.09;5074358;28;20207;-79
2023/05/28 09:51:03;;;;;;;9.63;4.10;;;;;;;22.42;48.27;98106.50;5073824;28;20227;-80
2023/05/28 09:53:33;;;;;;;6.13;4.13;;;;;;;22.54;49.86;98132.03;5074558;28;20218;-79
2023/05/28 09:56:00;;;;;;;7.23;4.00;;;;;;;22.69;46.48;98091.66;5073970;28;20713;-79
2023/05/28 09:58:34;;;;;;;6.20;4.50;;;;;;;22.63;45.70;98076.22;5071093;28;20257;-80
2023/05/28 10:01:04;;;;;;;5.50;3.80;;;;;;;22.67;45.23;98072.97;5070801;28;20658;-80
2023/05/28 10:03:37;;;;;;;8.80;4.20;;;;;;;22.77;44.52;98067.31;5073309;28;20207;-79
2023/05/28 10:06:07;;;;;;;7.80;4.20;;;;;;;22.71;45.56;98079.69;5073107;28;20206;-80
2023/05/28 10:08:37;;;;;;;7.10;4.00;;;;;;;22.66;45.88;98081.22;5074008;28;20796;-79
2023/05/28 10:11:06;;;;;;;7.37;4.23;;;;;;;22.66;47.02;98090.16;5073561;28;20231;-79
2023/05/28 10:13:35;;;;;;;7.80;3.70;;;;;;;22.82;49.13;98119.66;5074657;28;20203;-81
2023/05/28 10:16:02;;;;;;;9.60;4.20;;;;;;;22.96;49.58;98129.63;5074288;28;20705;-79
2023/05/28 10:18:29;;;;;;;7.43;4.00;;;;;;;23.03;47.80;98103.59;5073936;28;20214;-79
2023/05/28 10:20:56;;;;;;;6.70;3.87;;;;;;;23.18;45.75;98077.53;5072956;28;20321;-79
2023/05/28 10:23:25;;;;;;;7.23;4.07;;;;;;;23.16;43.85;98058.00;5073684;28;20685;-80
2023/05/28 10:25:52;;;;;;;6.20;3.73;;;;;;;23.22;47.89;98104.97;5073929;28;20236;-80
2023/05/28 10:28:21;;;;;;;6.50;3.90;;;;;;;23.29;50.16;98133.69;5073390;28;20214;-80
2023/05/28 10:31:01;;;;;;;6.63;3.93;;;;;;;23.32;49.66;98130.63;5072933;28;20235;-79
2023/05/28 10:33:27;;;;;;;6.90;4.23;;;;;;;23.36;47.63;98096.84;5071990;28;20222;-79
2023/05/28 10:35:55;;;;;;;8.47;3.90;;;;;;;23.44;47.35;98094.06;5071839;28;20233;-79
2023/05/28 10:38:23;;;;;;;7.53;4.13;;;;;;;23.58;44.80;98068.94;5072857;28;20211;-80
2023/05/28 10:40:49;;;;;;;6.67;4.27;;;;;;;23.57;43.62;98048.38;5071571;28;20231;-80
2023/05/28 10:43:42;;;;;;;6.27;4.07;;;;;;;23.56;46.28;98089.88;5073029;28;20710;-83
2023/05/28 10:46:15;;;;;;;5.43;3.80;;;;;;;23.56;47.87;98103.38;5073300;28;20203;-83
2023/05/28 10:48:42;;;;;;;5.87;4.03;;;;;;;23.79;47.02;98108.63;5073125;28;20207;-84
2023/05/28 10:51:09;;;;;;;9.23;4.63;;;;;;;23.82;42.03;98032.66;5072158;28;20227;-84
2023/05/28 10:53:35;;;;;;;6.73;3.90;;;;;;;23.80;43.19;98045.53;5072754;28;20302;-83
2023/05/28 10:56:02;;;;;;;7.40;3.97;;;;;;;23.80;46.23;98089.56;5073266;28;20546;-83
2023/05/28 10:58:34;;;;;;;8.63;4.20;;;;;;;23.86;41.87;98024.03;5072752;28;20281;-77
2023/05/28 11:01:04;;;;;;;10.23;4.70;;;;;;;23.90;44.40;98078.50;5072422;28;20226;-82
2023/05/28 11:03:42;;;;;;;7.00;4.03;;;;;;;23.96;44.63;98067.75;5072814;28;20207;-79
2023/05/28 11:06:10;;;;;;;7.47;4.20;;;;;;;23.98;45.25;98071.13;5072962;28;20206;-79
2023/05/28 11:08:45;;;;;;;8.13;4.00;;;;;;;24.13;40.55;98011.66;5072534;28;20287;-80
2023/05/28 11:11:13;;;;;;;7.13;3.80;;;;;;;24.07;43.74;98061.84;5072519;28;20581;-80
2023/05/28 11:13:42;;;;;;;6.43;4.33;;;;;;;24.15;45.47;98072.53;5072206;28;20214;-78
2023/05/28 11:16:10;;;;;;;5.23;3.63;;;;;;;24.26;43.01;98036.09;5072723;28;20227;-79
2023/05/28 11:18:36;;;;;;;7.00;4.20;;;;;;;24.38;40.65;98000.22;5072350;28;20658;-80
2023/05/28 11:21:07;;;;;;;6.17;3.73;;;;;;;24.40;39.80;97995.47;5071386;28;20223;-80
2023/05/28 11:23:34;;;;;;;5.70;3.60;;;;;;;24.31;43.71;98050.66;5072713;28;20218;-80
2023/05/28 11:26:01;;;;;;;6.93;3.90;;;;;;;24.33;44.84;98064.81;5072313;28;20298;-80
2023/05/28 11:28:27;;;;;;;7.37;4.03;;;;;;;24.36;43.24;98037.41;5072411;28;20222;-79
2023/05/28 11:30:57;;;;;;;4.90;3.63;;;;;;;24.42;41.44;98008.78;5071129;28;20251;-80
2023/05/28 11:33:27;;;;;;;6.43;3.87;;;;;;;24.50;42.08;98022.97;5072503;28;20215;-80
2023/05/28 11:35:58;;;;;;;7.77;4.27;;;;;;;24.70;41.86;98015.88;5072080;28;20697;-79